Time;durP1;ratioP1;P1;durP2;ratioP2;P2;SDS_P1;SDS_P2;PMS_P1;PMS_P2;Temp;Humidity;BMP_temperature;BMP_pressure;BME280_temperature;BME280_humidity;BME280_pressure;Samples;Min_cycle;Max_cycle;Signal;HPM_P1;HPM_P2
2021/11/14 00:02:25;;;;;;;17.27;12.95;;;10.20;93.40;;;;;;5083900;27;20033;-74
2021/11/14 00:04:50;;;;;;;18.80;13.98;;;10.20;93.30;;;;;;5067364;28;20044;-75
2021/11/14 00:07:17;;;;;;;21.30;13.90;;;10.20;93.40;;;;;;5078167;27;20051;-74
2021/11/14 00:09:46;;;;;;;19.20;14.80;;;10.20;93.40;;;;;;5059549;28;20377;-75
2021/11/14 00:12:12;;;;;;;25.58;15.82;;;10.20;93.40;;;;;;5066237;28;20079;-73
2021/11/14 00:14:38;;;;;;;16.77;14.30;;;10.20;93.50;;;;;;5063025;28;20044;-73
2021/11/14 00:17:04;;;;;;;17.95;14.00;;;10.20;93.50;;;;;;5083160;28;20422;-78
2021/11/14 00:19:30;;;;;;;18.25;13.63;;;10.20;93.60;;;;;;5082554;27;20464;-74
2021/11/14 00:21:56;;;;;;;17.90;13.90;;;10.20;93.60;;;;;;5089542;27;20044;-74
2021/11/14 00:24:21;;;;;;;16.95;13.80;;;10.20;93.60;;;;;;5089363;28;20032;-74
2021/11/14 00:26:47;;;;;;;17.77;13.35;;;10.20;93.60;;;;;;5085628;28;20052;-73
2021/11/14 00:29:13;;;;;;;17.52;14.05;;;10.20;93.70;;;;;;5080157;28;20039;-73
2021/11/14 00:31:39;;;;;;;17.90;12.82;;;10.20;93.70;;;;;;5079931;27;20037;-78
2021/11/14 00:34:06;;;;;;;14.73;12.02;;;10.20;93.70;;;;;;5081014;28;20070;-73
2021/11/14 00:36:40;;;;;;;14.95;12.25;;;10.20;93.80;;;;;;5088551;27;20028;-73
2021/11/14 00:39:10;;;;;;;15.98;12.48;;;10.20;93.80;;;;;;5079925;28;20369;-74
2021/11/14 00:41:36;;;;;;;17.73;12.32;;;10.20;93.80;;;;;;5081791;28;20089;-73
2021/11/14 00:44:04;;;;;;;15.82;12.45;;;10.30;93.80;;;;;;5084400;28;20426;-76
2021/11/14 00:46:29;;;;;;;14.32;11.82;;;10.30;93.90;;;;;;5087970;27;20491;-74
2021/11/14 00:48:55;;;;;;;14.90;11.25;;;10.20;93.80;;;;;;5081457;28;20102;-77
2021/11/14 00:51:28;;;;;;;14.93;11.23;;;10.20;93.90;;;;;;5082175;27;20101;-74
2021/11/14 00:53:56;;;;;;;13.27;10.75;;;10.20;93.90;;;;;;5085484;28;20048;-73
2021/11/14 00:56:21;;;;;;;15.75;11.80;;;10.30;93.90;;;;;;5083588;28;20483;-74
2021/11/14 00:58:47;;;;;;;15.35;10.73;;;10.30;94.00;;;;;;5084859;28;20074;-73
2021/11/14 01:01:13;;;;;;;15.30;10.85;;;10.20;94.00;;;;;;5080906;28;20170;-73
2021/11/14 01:03:39;;;;;;;12.57;9.90;;;10.20;94.00;;;;;;5084498;28;20028;-74
2021/11/14 01:06:04;;;;;;;16.42;11.32;;;10.20;94.00;;;;;;5071995;28;20132;-76
2021/11/14 01:08:30;;;;;;;15.43;10.82;;;10.20;94.00;;;;;;5083310;28;20513;-73
2021/11/14 01:10:59;;;;;;;16.33;11.18;;;10.20;94.00;;;;;;5077582;27;20032;-73
2021/11/14 01:13:25;;;;;;;13.70;10.25;;;10.30;94.00;;;;;;5077385;28;20032;-73
2021/11/14 01:15:52;;;;;;;17.55;11.50;;;10.20;94.00;;;;;;5087744;28;20463;-73
2021/11/14 01:18:19;;;;;;;16.20;10.90;;;10.20;94.00;;;;;;5080895;28;20361;-74
2021/11/14 01:20:48;;;;;;;15.48;11.40;;;10.20;94.00;;;;;;5072364;28;20041;-74
2021/11/14 01:23:16;;;;;;;15.63;10.82;;;10.20;94.00;;;;;;5076751;28;20111;-74
2021/11/14 01:25:43;;;;;;;14.98;11.07;;;10.20;94.00;;;;;;5089305;28;20055;-74
2021/11/14 01:28:09;;;;;;;13.60;10.38;;;10.20;94.00;;;;;;5070692;28;20038;-76
2021/11/14 01:30:40;;;;;;;15.25;10.10;;;10.20;94.00;;;;;;5078631;28;20028;-73
2021/11/14 01:33:08;;;;;;;15.68;10.85;;;10.20;94.00;;;;;;5066842;28;20048;-73
2021/11/14 01:35:35;;;;;;;17.15;11.77;;;10.30;94.00;;;;;;5059680;28;20037;-73
2021/11/14 01:38:01;;;;;;;15.23;11.25;;;10.20;93.90;;;;;;5061142;28;20407;-75
2021/11/14 01:40:38;;;;;;;15.30;11.68;;;10.30;94.00;;;;;;5063575;28;20128;-73
2021/11/14 01:43:06;;;;;;;13.77;10.35;;;10.20;94.00;;;;;;5073741;28;20085;-78
2021/11/14 01:45:32;;;;;;;15.30;11.27;;;10.20;94.00;;;;;;5081580;28;20351;-78
2021/11/14 01:47:58;;;;;;;16.65;11.35;;;10.20;94.00;;;;;;5069859;28;20467;-73
2021/11/14 01:50:24;;;;;;;13.40;10.38;;;10.20;94.00;;;;;;5070475;28;20394;-74
2021/11/14 01:52:52;;;;;;;15.57;11.23;;;10.20;94.00;;;;;;5071718;28;20036;-73
2021/11/14 01:55:22;;;;;;;14.60;11.85;;;10.20;94.10;;;;;;5078913;28;20071;-74
2021/11/14 01:57:49;;;;;;;13.73;11.55;;;10.20;94.10;;;;;;5084642;28;20039;-74
2021/11/14 02:00:30;;;;;;;13.73;11.38;;;10.20;94.10;;;;;;5066546;28;20029;-74
2021/11/14 02:02:56;;;;;;;13.50;11.10;;;10.20;94.10;;;;;;5058623;28;20488;-74
2021/11/14 02:05:24;;;;;;;15.15;11.45;;;10.20;94.10;;;;;;5077284;27;20056;-75
2021/11/14 02:07:54;;;;;;;15.32;12.20;;;10.20;94.10;;;;;;5057954;28;20036;-74
2021/11/14 02:10:22;;;;;;;17.08;12.27;;;10.20;94.10;;;;;;5070966;28;20047;-73
2021/11/14 02:12:48;;;;;;;16.20;11.70;;;10.20;94.20;;;;;;5071277;28;20644;-74
2021/11/14 02:15:15;;;;;;;13.88;11.27;;;10.20;94.10;;;;;;5072708;28;20038;-73
2021/11/14 02:17:41;;;;;;;17.42;12.70;;;10.20;94.20;;;;;;5071632;28;20124;-73
2021/11/14 02:20:08;;;;;;;15.55;12.70;;;10.20;94.20;;;;;;5070059;28;20035;-75
2021/11/14 02:22:35;;;;;;;15.70;11.88;;;10.20;94.20;;;;;;5088209;27;20040;-72
2021/11/14 02:25:01;;;;;;;15.98;13.38;;;10.20;94.20;;;;;;5073900;28;20037;-73
2021/11/14 02:27:27;;;;;;;18.63;13.60;;;10.20;94.20;;;;;;5073311;28;20522;-73
2021/11/14 02:29:53;;;;;;;18.63;13.73;;;10.20;94.20;;;;;;5076001;27;20048;-74
2021/11/14 02:32:19;;;;;;;19.52;13.82;;;10.20;94.30;;;;;;5071304;27;20272;-73
2021/11/14 02:34:44;;;;;;;18.83;13.40;;;10.20;94.30;;;;;;5069561;28;20416;-73
2021/11/14 02:37:10;;;;;;;16.77;13.43;;;10.20;94.30;;;;;;5076029;28;20544;-73
2021/11/14 02:39:36;;;;;;;16.70;12.98;;;10.30;94.30;;;;;;5079112;28;20388;-73
2021/11/14 02:42:03;;;;;;;18.58;14.18;;;10.30;94.20;;;;;;5058985;28;20032;-74
2021/11/14 02:44:29;;;;;;;20.52;14.95;;;10.30;94.20;;;;;;5082807;28;20040;-74
2021/11/14 02:46:56;;;;;;;21.88;15.30;;;10.30;94.20;;;;;;5076793;27;20453;-74
2021/11/14 02:49:21;;;;;;;21.42;15.30;;;10.30;94.30;;;;;;5078247;28;20040;-73
2021/11/14 02:51:48;;;;;;;20.73;15.20;;;10.30;94.30;;;;;;5073304;28;20310;-75
2021/11/14 02:54:14;;;;;;;20.92;15.88;;;10.30;94.30;;;;;;5078948;28;20582;-73
2021/11/14 02:56:40;;;;;;;19.35;14.98;;;10.30;94.30;;;;;;5079442;28;20066;-73
2021/11/14 02:59:06;;;;;;;25.50;17.80;;;10.30;94.30;;;;;;5079490;28;20484;-75
2021/11/14 03:01:44;;;;;;;25.38;17.15;;;10.30;94.30;;;;;;5084340;28;20108;-74
2021/11/14 03:04:18;;;;;;;22.75;16.90;;;10.30;94.30;;;;;;5077155;28;20035;-75
2021/11/14 03:06:44;;;;;;;25.05;16.45;;;10.30;94.30;;;;;;5080780;27;20051;-73
2021/11/14 03:09:10;;;;;;;23.40;17.23;;;10.30;94.40;;;;;;5077377;28;20077;-73
2021/11/14 03:11:36;;;;;;;23.88;17.65;;;10.30;94.40;;;;;;5068774;28;20060;-73
2021/11/14 03:14:03;;;;;;;27.42;18.05;;;10.30;94.40;;;;;;5070269;27;20468;-76
2021/11/14 03:16:30;;;;;;;26.42;18.63;;;10.40;94.50;;;;;;5087444;28;20495;-74
2021/11/14 03:18:56;;;;;;;28.08;18.70;;;10.30;94.50;;;;;;5066522;28;20020;-73
2021/11/14 03:21:23;;;;;;;27.13;19.50;;;10.40;94.60;;;;;;5064959;28;21099;-73
2021/11/14 03:23:49;;;;;;;26.27;18.98;;;10.40;94.60;;;;;;5060846;28;20077;-73
2021/11/14 03:26:16;;;;;;;23.85;18.60;;;10.40;94.60;;;;;;5062985;28;20029;-73
2021/11/14 03:28:43;;;;;;;34.50;21.83;;;10.40;94.60;;;;;;5058769;28;20068;-77
2021/11/14 03:31:08;;;;;;;30.10;20.73;;;10.40;94.70;;;;;;5085511;28;20032;-77
2021/11/14 03:33:34;;;;;;;29.30;20.13;;;10.40;94.70;;;;;;5084418;28;20041;-74
2021/11/14 03:36:12;;;;;;;28.70;20.08;;;10.40;94.70;;;;;;5065214;28;20383;-73
2021/11/14 03:38:43;;;;;;;27.05;20.20;;;10.40;94.70;;;;;;5062594;28;20032;-74
2021/11/14 03:41:11;;;;;;;28.75;20.77;;;10.40;94.70;;;;;;5063247;28;20530;-73
2021/11/14 03:43:38;;;;;;;26.77;19.52;;;10.40;94.70;;;;;;5064337;28;20131;-73
2021/11/14 03:46:05;;;;;;;29.10;20.60;;;10.40;94.70;;;;;;5058764;28;20126;-73
2021/11/14 03:48:32;;;;;;;29.42;20.25;;;10.40;94.70;;;;;;5057718;28;20044;-74
2021/11/14 03:50:58;;;;;;;26.67;20.23;;;10.40;94.70;;;;;;5061865;28;20024;-73
2021/11/14 03:53:24;;;;;;;26.58;19.58;;;10.40;94.70;;;;;;5063370;28;20470;-73
2021/11/14 03:55:51;;;;;;;29.45;20.48;;;10.40;94.70;;;;;;5063349;28;20094;-75
2021/11/14 03:58:17;;;;;;;25.83;20.13;;;10.50;94.70;;;;;;5062696;28;20032;-73
2021/11/14 04:00:50;;;;;;;28.98;21.30;;;10.50;94.70;;;;;;5061668;28;20861;-73
2021/11/14 04:03:16;;;;;;;23.60;18.48;;;10.50;94.70;;;;;;5069322;28;20039;-73
2021/11/14 04:05:45;;;;;;;26.77;20.25;;;10.50;94.70;;;;;;5072234;28;20059;-73
2021/11/14 04:08:23;;;;;;;27.45;20.00;;;10.50;94.70;;;;;;5086030;27;20062;-73
2021/11/14 04:10:51;;;;;;;26.15;19.60;;;10.50;94.60;;;;;;5082183;28;20036;-74
2021/11/14 04:13:17;;;;;;;30.77;22.23;;;10.40;94.60;;;;;;5081746;28;20052;-74
2021/11/14 04:15:44;;;;;;;28.30;20.92;;;10.40;94.60;;;;;;5084858;27;20072;-79
2021/11/14 04:18:10;;;;;;;35.70;22.52;;;10.50;94.60;;;;;;5081537;28;20044;-73
2021/11/14 04:20:38;;;;;;;24.52;20.60;;;10.50;94.60;;;;;;5079138;28;20028;-74
2021/11/14 04:23:05;;;;;;;26.98;22.00;;;10.50;94.60;;;;;;5084499;27;20043;-74
2021/11/14 04:25:31;;;;;;;27.33;20.40;;;10.50;94.60;;;;;;5084034;28;20050;-75
2021/11/14 04:27:58;;;;;;;24.10;19.42;;;10.50;94.50;;;;;;5084877;28;20386;-74
2021/11/14 04:30:25;;;;;;;26.67;20.05;;;10.50;94.50;;;;;;5080399;27;20356;-73
2021/11/14 04:32:51;;;;;;;25.52;19.70;;;10.40;94.50;;;;;;5079894;28;20045;-73
2021/11/14 04:35:18;;;;;;;26.05;19.95;;;10.40;94.50;;;;;;5061282;28;20036;-78
2021/11/14 04:37:48;;;;;;;25.30;19.33;;;10.40;94.50;;;;;;5074774;28;20579;-73
2021/11/14 04:40:15;;;;;;;25.15;18.83;;;10.40;94.60;;;;;;5064205;28;20029;-77
2021/11/14 04:42:41;;;;;;;25.02;18.48;;;10.40;94.60;;;;;;5060769;28;20068;-77
2021/11/14 04:45:07;;;;;;;25.90;19.23;;;10.40;94.60;;;;;;5061452;28;20087;-74
2021/11/14 04:47:33;;;;;;;27.75;20.10;;;10.40;94.60;;;;;;5064185;28;20120;-73
2021/11/14 04:49:59;;;;;;;22.13;18.20;;;10.40;94.60;;;;;;5061875;28;20437;-73
2021/11/14 04:52:25;;;;;;;25.35;18.73;;;10.40;94.60;;;;;;5066518;28;20146;-73
2021/11/14 04:54:50;;;;;;;23.17;17.90;;;10.40;94.60;;;;;;5083828;27;20028;-73
2021/11/14 04:57:16;;;;;;;21.48;17.27;;;10.40;94.60;;;;;;5085003;27;20059;-74
2021/11/14 04:59:42;;;;;;;24.92;18.05;;;10.40;94.60;;;;;;5086087;28;20028;-73
2021/11/14 05:02:07;;;;;;;27.77;20.13;;;10.30;94.70;;;;;;5076996;28;20083;-72
2021/11/14 05:04:33;;;;;;;24.35;19.33;;;10.30;94.60;;;;;;5083778;28;20090;-73
2021/11/14 05:06:59;;;;;;;27.10;20.70;;;10.30;94.60;;;;;;5079202;28;20040;-73
2021/11/14 05:09:24;;;;;;;24.40;19.45;;;10.30;94.60;;;;;;5083675;27;20199;-73
2021/11/14 05:11:50;;;;;;;23.63;19.08;;;10.30;94.70;;;;;;5078548;28;20039;-74
2021/11/14 05:14:16;;;;;;;29.92;20.75;;;10.30;94.70;;;;;;5082506;28;20468;-72
2021/11/14 05:16:42;;;;;;;23.13;18.63;;;10.30;94.70;;;;;;5082792;28;20115;-73
2021/11/14 05:19:07;;;;;;;22.23;18.35;;;10.40;94.70;;;;;;5080372;28;20487;-73
2021/11/14 05:21:33;;;;;;;21.52;18.05;;;10.30;94.70;;;;;;5082698;27;20055;-77
2021/11/14 05:23:59;;;;;;;23.38;17.85;;;10.40;94.70;;;;;;5084985;28;20048;-72
2021/11/14 05:26:24;;;;;;;21.95;17.02;;;10.40;94.60;;;;;;5074111;28;20422;-73
2021/11/14 05:28:50;;;;;;;21.45;17.90;;;10.30;94.70;;;;;;5055684;28;20048;-72
2021/11/14 05:31:16;;;;;;;20.52;16.73;;;10.40;94.70;;;;;;5060534;28;20319;-74
2021/11/14 05:33:41;;;;;;;24.00;17.20;;;10.40;94.60;;;;;;5065759;28;20067;-75
2021/11/14 05:36:07;;;;;;;23.55;17.45;;;10.30;94.60;;;;;;5082018;28;20154;-74
2021/11/14 05:38:32;;;;;;;21.02;17.70;;;10.30;94.60;;;;;;5068309;28;20080;-74
2021/11/14 05:40:58;;;;;;;21.92;17.15;;;10.30;94.60;;;;;;5074071;28;20040;-73
2021/11/14 05:43:24;;;;;;;24.27;18.13;;;10.30;94.60;;;;;;5083233;28;20036;-73
2021/11/14 05:45:49;;;;;;;22.35;18.17;;;10.30;94.60;;;;;;5077324;27;20040;-76
2021/11/14 05:48:15;;;;;;;20.95;17.00;;;10.30;94.60;;;;;;5067374;28;20392;-73
2021/11/14 05:50:41;;;;;;;25.40;18.90;;;10.20;94.50;;;;;;5076568;28;20036;-73
2021/11/14 05:53:07;;;;;;;22.95;17.42;;;10.20;94.50;;;;;;5072419;28;20032;-73
2021/11/14 05:55:33;;;;;;;21.70;18.02;;;10.20;94.60;;;;;;5068509;28;20391;-73
2021/11/14 05:58:04;;;;;;;23.23;16.98;;;10.20;94.60;;;;;;5075541;28;20035;-73
2021/11/14 06:00:49;;;;;;;24.02;18.48;;;10.20;94.60;;;;;;5085924;28;20036;-75
2021/11/14 06:06:00;;;;;;;24.58;16.60;;;10.20;94.60;;;;;;5063637;28;20430;-73
2021/11/14 06:08:26;;;;;;;22.35;17.20;;;10.20;94.50;;;;;;5078357;28;20036;-74
2021/11/14 06:10:53;;;;;;;24.00;18.45;;;10.20;94.50;;;;;;5072194;28;20119;-73
2021/11/14 06:13:20;;;;;;;25.23;19.08;;;10.20;94.50;;;;;;5056839;28;20135;-72
2021/11/14 06:15:47;;;;;;;24.55;17.92;;;10.20;94.50;;;;;;5078224;28;20395;-72
2021/11/14 06:18:13;;;;;;;26.48;19.33;;;10.20;94.50;;;;;;5068932;28;20063;-76
2021/11/14 06:20:39;;;;;;;28.10;20.33;;;10.30;94.60;;;;;;5074866;28;20029;-72
2021/11/14 06:23:06;;;;;;;31.00;21.33;;;10.20;94.60;;;;;;5080657;28;20729;-72
2021/11/14 06:25:33;;;;;;;29.65;19.50;;;10.30;94.60;;;;;;5080325;28;20056;-73
2021/11/14 06:27:59;;;;;;;31.65;21.83;;;10.30;94.60;;;;;;5082606;28;20032;-73
2021/11/14 06:30:25;;;;;;;35.20;22.83;;;10.30;94.60;;;;;;5080324;27;20047;-76
2021/11/14 06:32:51;;;;;;;32.60;21.55;;;10.40;94.70;;;;;;5076224;28;20050;-73
2021/11/14 06:35:16;;;;;;;40.78;24.80;;;10.30;94.60;;;;;;5074591;28;20032;-73
2021/11/14 06:37:42;;;;;;;42.50;25.10;;;10.40;94.60;;;;;;5062006;27;20040;-73
2021/11/14 06:40:09;;;;;;;42.20;26.85;;;10.40;94.70;;;;;;5076662;28;20035;-72
2021/11/14 06:42:35;;;;;;;46.22;27.33;;;10.40;94.70;;;;;;5075980;28;20044;-73
2021/11/14 06:45:01;;;;;;;47.70;27.20;;;10.40;94.70;;;;;;5081252;28;20051;-75
2021/11/14 06:47:27;;;;;;;46.22;28.85;;;10.40;94.70;;;;;;5071563;27;20055;-77
2021/11/14 06:49:52;;;;;;;44.85;28.55;;;10.40;94.70;;;;;;5072267;28;20679;-73
2021/11/14 06:52:20;;;;;;;48.65;28.88;;;10.40;94.80;;;;;;5055428;28;20532;-73
2021/11/14 06:54:45;;;;;;;47.28;28.00;;;10.40;94.80;;;;;;5062452;28;20063;-76
2021/11/14 06:57:11;;;;;;;46.63;28.30;;;10.50;94.80;;;;;;5060944;28;20480;-72
2021/11/14 06:59:39;;;;;;;46.53;30.40;;;10.50;94.80;;;;;;5071139;28;20530;-74
2021/11/14 07:02:09;;;;;;;50.28;31.95;;;10.40;94.80;;;;;;5066948;27;20040;-73
2021/11/14 07:04:35;;;;;;;53.63;32.60;;;10.50;94.80;;;;;;5067395;28;20048;-74
2021/11/14 07:07:02;;;;;;;54.65;32.58;;;10.50;94.90;;;;;;5063580;28;20048;-73
2021/11/14 07:09:27;;;;;;;52.70;32.92;;;10.40;94.90;;;;;;5069995;28;20032;-71
2021/11/14 07:11:56;;;;;;;53.13;30.85;;;10.50;94.90;;;;;;5075016;27;20050;-73
2021/11/14 07:14:23;;;;;;;46.50;30.15;;;10.50;94.90;;;;;;5066268;28;20050;-74
2021/11/14 07:16:50;;;;;;;57.17;33.53;;;10.50;94.90;;;;;;5067863;28;20491;-73
2021/11/14 07:19:15;;;;;;;59.25;33.30;;;10.50;94.90;;;;;;5070092;28;20028;-74
2021/11/14 07:21:41;;;;;;;60.00;34.63;;;10.50;94.90;;;;;;5059429;28;20430;-74
2021/11/14 07:24:07;;;;;;;55.83;34.25;;;10.50;94.90;;;;;;5059136;28;20044;-73
2021/11/14 07:26:33;;;;;;;65.25;36.25;;;10.50;94.90;;;;;;5059599;28;20028;-72
2021/11/14 07:28:59;;;;;;;67.68;36.58;;;10.50;94.90;;;;;;5060540;28;20037;-71
2021/11/14 07:31:24;;;;;;;65.32;35.70;;;10.50;94.90;;;;;;5056703;28;20575;-72
2021/11/14 07:33:50;;;;;;;70.47;38.85;;;10.50;94.90;;;;;;5062676;28;20467;-72
2021/11/14 07:36:16;;;;;;;64.03;37.75;;;10.50;94.90;;;;;;5059063;28;20106;-72
2021/11/14 07:38:42;;;;;;;67.20;37.90;;;10.60;95.00;;;;;;5064560;28;20063;-73
2021/11/14 07:41:08;;;;;;;69.80;40.30;;;10.60;95.00;;;;;;5060669;28;20036;-73
2021/11/14 07:43:34;;;;;;;69.30;39.38;;;10.60;94.90;;;;;;5061324;28;20468;-72
2021/11/14 07:46:00;;;;;;;77.55;40.30;;;10.60;95.00;;;;;;5059439;28;20033;-72
2021/11/14 07:48:25;;;;;;;70.03;39.72;;;10.60;95.00;;;;;;5057840;28;20081;-72
2021/11/14 07:50:54;;;;;;;71.18;38.95;;;10.60;94.90;;;;;;5062629;28;20028;-72
2021/11/14 07:53:20;;;;;;;68.55;39.85;;;10.60;94.90;;;;;;5058619;28;20061;-73
2021/11/14 07:55:46;;;;;;;72.35;39.30;;;10.60;95.00;;;;;;5062081;28;20033;-72
2021/11/14 07:58:12;;;;;;;72.57;39.08;;;10.60;95.00;;;;;;5062626;28;20441;-73
2021/11/14 08:00:39;;;;;;;70.32;40.38;;;10.60;94.90;;;;;;5066318;28;20059;-77
2021/11/14 08:03:05;;;;;;;90.40;47.92;;;10.70;94.90;;;;;;5062583;28;20041;-79
2021/11/14 08:05:31;;;;;;;73.32;41.08;;;10.60;94.80;;;;;;5063710;28;20033;-74
2021/11/14 08:07:58;;;;;;;77.10;41.63;;;10.70;94.90;;;;;;5067241;28;20063;-74
2021/11/14 08:10:24;;;;;;;70.78;41.65;;;10.70;94.80;;;;;;5074119;28;20037;-75
2021/11/14 08:12:51;;;;;;;73.47;41.20;;;10.70;94.80;;;;;;5066766;28;20120;-74
2021/11/14 08:15:17;;;;;;;73.20;40.65;;;10.70;94.80;;;;;;5061181;28;20028;-75
2021/11/14 08:17:44;;;;;;;76.05;40.88;;;10.70;94.80;;;;;;5062779;28;20482;-74
2021/11/14 08:20:11;;;;;;;75.75;41.20;;;10.80;94.80;;;;;;5062982;28;20040;-75
2021/11/14 08:22:37;;;;;;;65.38;38.10;;;10.80;94.70;;;;;;5063521;28;20047;-72
2021/11/14 08:25:04;;;;;;;73.03;41.25;;;10.80;94.80;;;;;;5055248;28;20123;-75
2021/11/14 08:27:30;;;;;;;72.82;41.55;;;10.80;94.70;;;;;;5068687;28;20046;-78
2021/11/14 08:29:57;;;;;;;74.05;41.40;;;10.80;94.70;;;;;;5085834;28;20040;-73
2021/11/14 08:32:23;;;;;;;71.32;40.97;;;10.90;94.60;;;;;;5086159;28;20141;-75
2021/11/14 08:34:49;;;;;;;74.07;43.25;;;10.90;94.50;;;;;;5079078;28;20066;-74
2021/11/14 08:37:14;;;;;;;71.00;40.88;;;10.80;94.50;;;;;;5085692;28;20028;-74
2021/11/14 08:39:41;;;;;;;72.65;42.22;;;10.90;94.50;;;;;;5083163;28;20391;-77
2021/11/14 08:42:07;;;;;;;66.88;40.63;;;11.00;94.40;;;;;;5079526;28;20040;-74
2021/11/14 08:44:33;;;;;;;67.55;41.55;;;11.00;94.40;;;;;;5078165;28;20555;-74
2021/11/14 08:46:59;;;;;;;70.10;42.05;;;11.00;94.40;;;;;;5068990;28;20119;-74
2021/11/14 08:49:26;;;;;;;65.20;42.00;;;11.00;94.30;;;;;;5078348;27;20111;-75
2021/11/14 08:51:52;;;;;;;71.47;41.80;;;11.00;94.40;;;;;;5073430;28;20045;-74
2021/11/14 08:54:19;;;;;;;73.28;41.30;;;11.10;94.40;;;;;;5065961;28;20488;-74
2021/11/14 08:56:45;;;;;;;63.97;40.78;;;11.10;94.30;;;;;;5061569;28;20028;-75
2021/11/14 08:59:11;;;;;;;61.53;39.70;;;11.20;94.20;;;;;;5062148;28;20454;-77
2021/11/14 09:01:38;;;;;;;64.38;39.33;;;11.10;94.10;;;;;;5063572;28;20502;-74
2021/11/14 09:04:06;;;;;;;67.13;40.40;;;11.20;94.10;;;;;;5065040;28;20045;-76
2021/11/14 09:06:33;;;;;;;69.07;41.10;;;11.20;93.70;;;;;;5058123;28;20067;-74
2021/11/14 09:08:58;;;;;;;65.10;40.10;;;11.20;93.70;;;;;;5064119;28;20597;-75
2021/11/14 09:11:24;;;;;;;62.05;38.17;;;11.20;93.70;;;;;;5056093;28;20123;-75
2021/11/14 09:13:51;;;;;;;63.28;40.35;;;11.30;93.60;;;;;;5067319;28;20050;-74
2021/11/14 09:16:17;;;;;;;59.92;38.50;;;11.30;93.40;;;;;;5077616;28;20419;-75
2021/11/14 09:18:42;;;;;;;58.67;39.47;;;11.30;93.20;;;;;;5079937;28;20450;-77
2021/11/14 09:21:08;;;;;;;59.75;37.15;;;11.40;93.20;;;;;;5067056;28;20051;-76
2021/11/14 09:23:34;;;;;;;54.20;35.10;;;11.40;92.90;;;;;;5085431;28;20123;-76
2021/11/14 09:26:00;;;;;;;51.63;35.75;;;11.40;92.50;;;;;;5080829;27;20032;-77
2021/11/14 09:28:26;;;;;;;54.70;35.53;;;11.50;92.40;;;;;;5089858;27;20650;-74
2021/11/14 09:30:53;;;;;;;56.25;35.28;;;11.50;92.30;;;;;;5067351;28;20045;-74
2021/11/14 09:33:24;;;;;;;50.35;32.53;;;11.60;92.10;;;;;;5063626;28;20053;-74
2021/11/14 09:35:50;;;;;;;48.38;31.65;;;11.60;91.80;;;;;;5066416;28;20110;-76
2021/11/14 09:38:16;;;;;;;46.90;31.08;;;11.60;91.50;;;;;;5082907;28;20090;-75
2021/11/14 09:40:43;;;;;;;43.78;29.20;;;11.60;91.00;;;;;;5074602;28;20479;-73
2021/11/14 09:43:09;;;;;;;46.65;30.23;;;11.50;90.30;;;;;;5078389;28;20491;-74
2021/11/14 09:45:36;;;;;;;47.45;30.85;;;11.60;90.40;;;;;;5074433;28;20066;-73
2021/11/14 09:48:03;;;;;;;46.40;29.77;;;11.50;89.80;;;;;;5090377;28;20040;-72
2021/11/14 09:50:30;;;;;;;45.40;30.45;;;11.50;89.80;;;;;;5083303;28;20033;-72
2021/11/14 09:52:57;;;;;;;47.53;30.25;;;11.60;89.90;;;;;;5081498;28;20126;-73
2021/11/14 09:55:24;;;;;;;43.20;28.98;;;11.60;89.50;;;;;;5072046;28;20031;-72
2021/11/14 09:57:50;;;;;;;46.63;29.92;;;11.60;89.30;;;;;;5081813;28;20036;-73
2021/11/14 10:00:18;;;;;;;47.55;31.33;;;11.60;89.10;;;;;;5074096;28;20037;-73
2021/11/14 10:02:44;;;;;;;50.08;32.70;;;11.70;89.00;;;;;;5080463;28;20058;-74
2021/11/14 10:05:12;;;;;;;50.67;34.60;;;11.70;88.90;;;;;;5083160;28;20036;-74
2021/11/14 10:07:41;;;;;;;49.30;32.38;;;11.70;88.60;;;;;;5079953;28;20032;-73
2021/11/14 10:10:10;;;;;;;48.55;33.08;;;11.70;88.30;;;;;;5081639;28;20139;-73
2021/11/14 10:12:36;;;;;;;52.10;34.15;;;11.80;88.20;;;;;;5076775;28;20037;-74
2021/11/14 10:15:17;;;;;;;53.35;35.78;;;11.80;88.30;;;;;;5065758;28;20450;-73
2021/11/14 10:17:50;;;;;;;52.63;37.60;;;11.90;88.40;;;;;;5061181;28;20040;-75
2021/11/14 10:20:24;;;;;;;54.63;38.70;;;12.00;87.80;;;;;;5066639;28;20028;-73
2021/11/14 10:22:57;;;;;;;56.03;40.17;;;11.90;87.50;;;;;;5084123;28;20082;-73
2021/11/14 10:25:24;;;;;;;60.25;41.35;;;11.70;87.80;;;;;;5075900;28;20098;-71
2021/11/14 10:27:52;;;;;;;62.13;43.03;;;11.70;88.00;;;;;;5080515;28;20040;-73
2021/11/14 10:30:24;;;;;;;64.70;45.38;;;11.70;88.00;;;;;;5084360;27;20129;-72
2021/11/14 10:32:54;;;;;;;61.47;43.90;;;11.70;87.90;;;;;;5061850;28;20037;-71
2021/11/14 10:35:21;;;;;;;67.78;45.38;;;11.70;88.00;;;;;;5075766;28;20446;-71
2021/11/14 10:37:47;;;;;;;65.03;44.75;;;11.60;88.30;;;;;;5073109;28;20024;-73
2021/11/14 10:40:20;;;;;;;61.22;42.25;;;11.60;88.00;;;;;;5068870;27;20048;-74
2021/11/14 10:43:04;;;;;;;66.13;44.65;;;11.60;87.90;;;;;;5068639;28;20033;-72
2021/11/14 10:45:34;;;;;;;66.18;43.85;;;11.60;87.80;;;;;;5074968;28;20483;-73
2021/11/14 10:48:07;;;;;;;66.55;44.30;;;11.60;88.00;;;;;;5079407;28;20069;-73
2021/11/14 10:50:37;;;;;;;61.92;40.72;;;11.70;88.00;;;;;;5081758;28;20032;-72
2021/11/14 10:53:07;;;;;;;65.18;43.17;;;11.70;88.00;;;;;;5081108;28;20055;-72
2021/11/14 10:55:48;;;;;;;63.65;42.08;;;11.80;88.10;;;;;;5100481;28;20036;-72
2021/11/14 10:58:16;;;;;;;61.15;41.00;;;11.80;87.70;;;;;;5063197;28;20057;-72
2021/11/14 11:00:44;;;;;;;61.15;41.72;;;11.80;87.20;;;;;;5075990;28;20086;-74
2021/11/14 11:03:10;;;;;;;61.83;41.67;;;11.70;87.20;;;;;;5058892;28;20052;-73
2021/11/14 11:05:37;;;;;;;65.57;42.90;;;11.80;87.60;;;;;;5061020;28;20030;-73
2021/11/14 11:08:07;;;;;;;66.57;43.45;;;11.70;87.40;;;;;;5061927;28;20032;-73
2021/11/14 11:10:44;;;;;;;66.72;44.22;;;11.70;87.80;;;;;;5060111;28;20082;-73
2021/11/14 11:13:13;;;;;;;65.53;44.17;;;11.70;87.80;;;;;;5070555;28;20044;-73
2021/11/14 11:15:48;;;;;;;68.90;43.83;;;11.60;87.50;;;;;;5080639;28;20349;-72
2021/11/14 11:18:15;;;;;;;;;;;11.50;88.00;;;;;;5081065;28;20037;-73
2021/11/14 11:20:43;;;;;;;69.03;42.92;;;11.60;88.00;;;;;;5079950;28;19973;-73
2021/11/14 11:23:14;;;;;;;65.10;42.35;;;11.50;87.80;;;;;;5078797;28;20487;-73
2021/11/14 11:25:49;;;;;;;66.05;42.15;;;11.60;88.00;;;;;;5065775;28;20044;-73
2021/11/14 11:28:28;;;;;;;60.50;39.60;;;11.70;87.70;;;;;;5059559;28;20051;-72
2021/11/14 11:31:00;;;;;;;59.38;38.28;;;11.60;87.20;;;;;;5058599;28;20061;-74
2021/11/14 11:33:27;;;;;;;62.97;40.10;;;11.60;87.30;;;;;;5077102;28;20040;-74
2021/11/14 11:35:55;;;;;;;59.55;38.83;;;11.60;87.40;;;;;;5065687;28;20112;-73
2021/11/14 11:38:21;;;;;;;59.95;38.78;;;11.60;87.20;;;;;;5068716;28;20040;-73
2021/11/14 11:40:48;;;;;;;63.28;40.30;;;11.60;87.10;;;;;;5079021;28;20060;-73
2021/11/14 11:43:14;;;;;;;62.42;40.17;;;11.70;87.10;;;;;;5065255;28;20343;-72
2021/11/14 11:45:43;;;;;;;64.10;41.47;;;11.80;87.00;;;;;;5062844;28;20033;-72
2021/11/14 11:48:34;;;;;;;63.78;41.72;;;11.80;86.80;;;;;;5069868;28;20040;-72
2021/11/14 11:51:13;;;;;;;68.15;43.10;;;11.80;86.80;;;;;;5084446;28;20048;-73
2021/11/14 11:53:40;;;;;;;67.45;43.75;;;11.80;86.60;;;;;;5077092;28;20040;-71
2021/11/14 11:56:12;;;;;;;63.63;41.72;;;11.70;86.80;;;;;;5055261;28;20029;-73
2021/11/14 11:58:51;;;;;;;61.63;41.97;;;11.80;86.90;;;;;;5059877;28;20131;-75
2021/11/14 12:01:29;;;;;;;61.90;41.67;;;11.90;86.40;;;;;;5083141;28;20046;-71
2021/11/14 12:04:08;;;;;;;63.08;41.50;;;11.90;86.40;;;;;;5060707;28;20361;-73
2021/11/14 12:07:00;;;;;;;65.22;40.83;;;11.80;86.50;;;;;;5061079;28;20033;-74
2021/11/14 12:09:48;;;;;;;66.50;40.28;;;11.70;87.00;;;;;;5058509;28;20498;-74
2021/11/14 12:12:30;;;;;;;61.63;39.78;;;11.80;86.30;;;;;;5071224;28;20044;-72
2021/11/14 12:15:19;;;;;;;63.50;40.25;;;11.80;86.40;;;;;;5066673;28;20054;-71
2021/11/14 12:17:59;;;;;;;61.58;39.83;;;11.90;86.30;;;;;;5072469;28;20038;-71
2021/11/14 12:20:38;;;;;;;55.33;36.65;;;11.90;86.20;;;;;;5062919;28;20115;-71
2021/11/14 12:23:30;;;;;;;58.00;37.22;;;11.90;85.70;;;;;;5063342;28;20039;-72
2021/11/14 12:25:58;;;;;;;57.53;34.55;;;11.90;85.40;;;;;;5060361;28;20024;-71
2021/11/14 12:28:32;;;;;;;58.38;35.25;;;11.80;85.40;;;;;;5062051;28;20451;-73
2021/11/14 12:31:25;;;;;;;59.47;38.17;;;11.90;85.30;;;;;;5062309;28;20460;-74
2021/11/14 12:33:58;;;;;;;55.22;34.42;;;12.00;85.20;;;;;;5067056;28;20512;-73
2021/11/14 12:36:40;;;;;;;55.08;32.45;;;12.10;84.80;;;;;;5069994;28;20036;-74